ADDS METAR Data INFO
IDs: Format: Raw Decoded Include TAF

Data at: 0211 UTC 20 Sep 2017

KEAN 200155Z AUTO 22015G24KT 10SM SCT050 SCT070 OVC100 10/00 A2987 RMK AO2 T00960002
KEAN 200135Z AUTO 22012G22KT 10SM SCT060 BKN070 OVC110 09/01 A2985 RMK AO2 T00920007
KEAN 200115Z AUTO 21019G28KT 10SM BKN060 BKN070 BKN090 09/01 A2984 RMK AO2 T00860011
KEAN 200055Z AUTO 23022G31KT 10SM SCT060 BKN070 BKN085 08/02 A2983 RMK AO2 T00840015
KEAN 200035Z AUTO 23020G33KT 10SM -RA SCT110 09/02 A2982 RMK AO2 T00850016
KEAN 200015Z AUTO 24020G32KT 10SM SCT095 SCT120 10/00 A2984 RMK AO2 T00950003
KEAN 192355Z AUTO 24021G29KT 10SM CLR 10/00 A2983 RMK AO2 T00980002 10253 20098
KEAN 192335Z AUTO 25018G29KT 10SM CLR 11/00 A2982 RMK AO2 T01130000
KEAN 192315Z AUTO 25024G35KT 10SM CLR 12/00 A2980 RMK AO2 T01200000
KEAN 192255Z AUTO 24023G35KT 10SM CLR 12/00 A2981 RMK AO2 T01240003
KEAN 192235Z AUTO 24025G39KT 10SM CLR 14/00 A2980 RMK AO2 T01350002
KEAN 192215Z AUTO 25024G34KT 10SM CLR 14/00 A2978 RMK AO2 T01440000
KEAN 192155Z AUTO 25020G33KT 10SM CLR 15/00 A2978 RMK AO2 T01540002
KEAN 192135Z AUTO 27015G27KT 10SM CLR 17/01 A2977 RMK AO2 T01680009
KEAN 192115Z AUTO 25019G30KT 230V290 10SM CLR 17/01 A2976 RMK AO2 T01740010
KEAN 192055Z AUTO 27018G28KT 10SM CLR 18/02 A2975 RMK AO2 T01770017
KEAN 192035Z AUTO 26017G28KT 10SM CLR 19/02 A2972 RMK AO2 T01930021
KEAN 192015Z AUTO 27019G32KT 10SM CLR 22/03 A2970 RMK AO2 T02150027
KEAN 191955Z AUTO 25020G31KT 10SM CLR 23/03 A2968 RMK AO2 T02340027
KEAN 191935Z AUTO 25021G27KT 10SM SCT120 25/01 A2964 RMK AO2 T02490012
KEAN 191915Z AUTO 25012G18KT 10SM OVC120 25/01 A2962 RMK AO2 T02500008
KEAN 191855Z AUTO 31004KT 10SM BKN120 24/00 A2961 RMK AO2 T02400003
KEAN 191835Z AUTO 34006KT 10SM BKN120 25/01 A2960 RMK AO2 T02460008
KEAN 191815Z AUTO 32006KT 10SM BKN120 24/02 A2961 RMK AO2 T02380020
KEAN 191755Z AUTO 33005KT 10SM BKN120 23/01 A2961 RMK AO2 T02330013 10233 20136
KEAN 191735Z AUTO 01006KT 10SM OVC120 22/03 A2961 RMK AO2 T02180027
KEAN 191715Z AUTO 32007KT 10SM OVC120 22/02 A2963 RMK AO2 T02210021
KEAN 191655Z AUTO 34005KT 10SM BKN120 22/02 A2963 RMK AO2 T02220019
KEAN 191635Z AUTO 33006KT 10SM CLR 22/01 A2963 RMK AO2 T02230006
KEAN 191615Z AUTO 35005KT 10SM CLR 21/00 A2963 RMK AO2 T02090004
KEAN 191555Z AUTO 36003KT 10SM CLR 20/M01 A2965 RMK AO2 T02021014
KEAN 191535Z AUTO 30003KT 10SM CLR 18/01 A2965 RMK AO2 T01760011
KEAN 191515Z AUTO 00000KT 10SM CLR 14/04 A2966 RMK AO2 T01380035
KEAN 191455Z AUTO 29005KT 10SM CLR 16/02 A2966 RMK AO2 T01590015
KEAN 191435Z AUTO 12006KT 10SM CLR 17/M02 A2966 RMK AO2 T01741018
KEAN 191415Z AUTO 11007KT 10SM CLR 17/M02 A2966 RMK AO2 T01661024
KEAN 191355Z AUTO 13008KT 10SM CLR 16/M03 A2966 RMK AO2 T01621026
KEAN 191335Z AUTO 13007KT 10SM CLR 16/M03 A2966 RMK AO2 T01621030
KEAN 191315Z AUTO 12007KT 10SM CLR 16/M03 A2967 RMK AO2 T01601031
KEAN 191255Z AUTO 12007KT 10SM CLR 17/M04 A2966 RMK AO2 T01651036
KEAN 191235Z AUTO 12006KT 10SM CLR 16/M03 A2966 RMK AO2 T01561029
KEAN 191215Z AUTO 14004KT 10SM CLR 16/M02 A2966 RMK AO2 T01561025
KEAN 191155Z AUTO 12008KT 10SM CLR 15/M02 A2965 RMK AO2 T01501020 10175 20122
KEAN 191135Z AUTO 13006KT 10SM CLR 14/M01 A2965 RMK AO2 T01361009
KEAN 191115Z AUTO 11009KT 10SM CLR 13/00 A2966 RMK AO2 T01300000
KEAN 191055Z AUTO 14008KT 10SM CLR 13/00 A2967 RMK AO2 T01260004
KEAN 191035Z AUTO 12007KT 10SM CLR 12/01 A2967 RMK AO2 T01240006
KEAN 191015Z AUTO 12006KT 10SM CLR 13/00 A2968 RMK AO2 T01320001
KEAN 190955Z AUTO 14004KT 10SM CLR 13/00 A2969 RMK AO2 T01300000
KEAN 190935Z AUTO 15004KT 10SM CLR 14/00 A2969 RMK AO2 T01390000
KEAN 190915Z AUTO 11008KT 10SM CLR 15/00 A2969 RMK AO2 T01461001
KEAN 190855Z AUTO 12007KT 10SM CLR 15/00 A2969 RMK AO2 T01541005
KEAN 190835Z AUTO 11007KT 10SM CLR 16/00 A2970 RMK AO2 T01561005
KEAN 190815Z AUTO 12009KT 10SM CLR 16/00 A2971 RMK AO2 T01551002
KEAN 190755Z AUTO 12008KT 10SM CLR 16/00 A2972 RMK AO2 T01561002
KEAN 190735Z AUTO 14009KT 10SM CLR 16/00 A2973 RMK AO2 T01601005
KEAN 190715Z AUTO 11009KT 10SM CLR 16/00 A2973 RMK AO2 T01621005
KEAN 190655Z AUTO 16008KT 10SM CLR 16/00 A2973 RMK AO2 T01601003 402950095
KEAN 190635Z AUTO 15005KT 10SM SCT120 17/M01 A2974 RMK AO2 T01731011
KEAN 190615Z AUTO 00000KT 10SM BKN110 16/00 A2975 RMK AO2 T01601004
KEAN 190555Z AUTO 12007KT 10SM CLR 18/M01 A2976 RMK AO2 T01751007 10269 20159
KEAN 190535Z AUTO 11009KT 10SM CLR 18/M01 A2977 RMK AO2 T01751006
KEAN 190515Z AUTO 11009KT 10SM CLR 17/00 A2977 RMK AO2 T01711004
KEAN 190455Z AUTO 09009KT 10SM CLR 16/00 A2978 RMK AO2 T01620000
KEAN 190435Z AUTO 14010G14KT 10SM CLR 20/M02 A2978 RMK AO2 T02041020
KEAN 190415Z AUTO 16008KT 10SM CLR 19/00 A2979 RMK AO2 T01931001
KEAN 190355Z AUTO 18009KT 10SM CLR 20/00 A2980 RMK AO2 T02001001
KEAN 190335Z AUTO 19007KT 10SM CLR 20/00 A2980 RMK AO2 T02000002
KEAN 190315Z AUTO 12006KT 10SM SCT120 19/01 A2980 RMK AO2 T01890005
KEAN 190255Z AUTO 12007KT 10SM CLR 18/01 A2981 RMK AO2 T01770008
KEAN 190235Z AUTO 11008KT 10SM CLR 16/02 A2981 RMK AO2 T01620020
KEAN 190215Z AUTO 11009KT 10SM CLR 18/02 A2982 RMK AO2 T01760016
KEAN 190155Z AUTO 17003KT 10SM CLR 19/01 A2981 RMK AO2 T01910014
KEAN 190135Z AUTO 15006KT 10SM CLR 20/02 A2982 RMK AO2 T01950015
KEAN 190115Z AUTO 16006KT 10SM CLR 20/02 A2982 RMK AO2 T02020019
KEAN 190055Z AUTO 15004KT 10SM SCT120 22/02 A2982 RMK AO2 T02160019
KEAN 190035Z AUTO 16003KT 10SM CLR 25/00 A2982 RMK AO2 T02450000
KEAN 190015Z AUTO 17004KT 10SM CLR 26/M02 A2982 RMK AO2 T02591016
KEAN 182355Z AUTO 20004KT 10SM CLR 27/M02 A2982 RMK AO2 T02671018 10295 20260
KEAN 182335Z AUTO 19008G14KT 160V220 10SM CLR 28/M02 A2983 RMK AO2 T02751024
KEAN 182315Z AUTO 21007KT 10SM SCT120 28/M02 A2984 RMK AO2 T02751025
KEAN 182255Z AUTO 19004KT 10SM SCT120 28/M03 A2984 RMK AO2 T02761030
KEAN 182235Z AUTO 23006G17KT 10SM CLR 27/M03 A2984 RMK AO2 T02701030
KEAN 182215Z AUTO 23010G16KT 210V270 10SM SCT120 29/M03 A2985 RMK AO2 T02851033
KEAN 182155Z AUTO 22010G15KT 10SM SCT120 29/M03 A2986 RMK AO2 T02871031
KEAN 182135Z AUTO 23011G17KT 10SM SCT120 29/M04 A2986 RMK AO2 T02871039
KEAN 182115Z AUTO 23008KT 200V260 10SM BKN120 29/M03 A2986 RMK AO2 T02911033
KEAN 182055Z AUTO 23009G17KT 10SM BKN120 29/M03 A2987 RMK AO2 T02891030
KEAN 182035Z AUTO 24010G14KT 10SM BKN120 29/M02 A2988 RMK AO2 T02891016
KEAN 182015Z AUTO 23012G16KT 10SM BKN110 28/M02 A2989 RMK AO2 T02771024
KEAN 181955Z AUTO 22006G17KT 10SM CLR 27/M02 A2990 RMK AO2 T02741025
KEAN 181935Z AUTO 21009KT 10SM CLR 26/M03 A2991 RMK AO2 T02641030
KEAN 181915Z AUTO 23008G14KT 210V280 10SM CLR 27/M03 A2992 RMK AO2 T02651031
KEAN 181855Z AUTO 24010G17KT 10SM CLR 27/M03 A2993 RMK AO2 T02731028
KEAN 181835Z AUTO 25008G16KT 10SM CLR 27/M03 A2994 RMK AO2 T02691030
KEAN 181815Z AUTO 24008G16KT 10SM CLR 27/M03 A2995 RMK AO2 T02651031
KEAN 181755Z AUTO 23009G16KT 190V250 10SM CLR 26/M02 A2996 RMK AO2 T02611019 10262 20099
KEAN 181735Z AUTO 24008KT 10SM CLR 25/00 A2997 RMK AO2 T02540001
KEAN 181715Z AUTO 20008KT 10SM CLR 24/01 A2997 RMK AO2 T02430007
KEAN 181655Z AUTO 20009G15KT 10SM CLR 24/02 A2998 RMK AO2 T02350015
KEAN 181635Z AUTO 18011G15KT 10SM CLR 23/02 A2999 RMK AO2 T02280022
KEAN 181615Z AUTO 20010G15KT 10SM CLR 22/03 A2999 RMK AO2 T02200029
KEAN 181555Z AUTO 19009KT 10SM CLR 21/03 A3000 RMK AO2 T02060028
KEAN 181535Z AUTO 17004KT 10SM CLR 19/03 A3000 RMK AO2 T01920028
KEAN 181515Z AUTO 19005KT 10SM CLR 18/04 A3001 RMK AO2 T01770040
KEAN 181455Z AUTO 00000KT 10SM CLR 17/04 A3001 RMK AO2 T01650038
KEAN 181435Z AUTO 17007KT 10SM CLR 15/03 A3001 RMK AO2 T01510031
KEAN 181415Z AUTO 19008KT 10SM CLR 14/03 A3001 RMK AO2 T01400034